Time;durP1;ratioP1;P1;durP2;ratioP2;P2;SDS_P1;SDS_P2;PMS_P1;PMS_P2;Temp;Humidity;BMP_temperature;BMP_pressure;BME280_temperature;BME280_humidity;BME280_pressure;Samples;Min_cycle;Max_cycle;Signal;HPM_P1;HPM_P2
2022/11/15 00:00:49;;;;;;;142.68;61.13;;;;;;;4.00;100.00;99445.44;8431516;28;20060;-75
2022/11/15 00:04:49;;;;;;;140.65;59.42;;;;;;;4.01;100.00;99439.03;8434346;28;20051;-74
2022/11/15 00:08:50;;;;;;;137.88;58.53;;;;;;;3.99;100.00;99422.44;8431336;28;20048;-74
2022/11/15 00:12:52;;;;;;;138.18;59.08;;;;;;;3.95;100.00;99422.16;8427871;28;20040;-74
2022/11/15 00:16:54;;;;;;;142.80;58.25;;;;;;;3.99;100.00;99412.56;8427729;28;20055;-74
2022/11/15 00:20:55;;;;;;;148.82;58.40;;;;;;;3.97;100.00;99419.22;8428546;28;20424;-74
2022/11/15 00:24:56;;;;;;;143.85;58.90;;;;;;;3.95;100.00;99399.97;8427903;28;20097;-74
2022/11/15 00:28:57;;;;;;;148.95;58.45;;;;;;;3.96;100.00;99404.28;8431467;28;20056;-74
2022/11/15 00:33:04;;;;;;;133.50;55.67;;;;;;;3.95;100.00;99394.66;8427624;28;20047;-74
2022/11/15 00:37:06;;;;;;;137.65;57.33;;;;;;;3.96;100.00;99396.25;8427223;28;20079;-74
2022/11/15 00:41:08;;;;;;;135.48;57.63;;;;;;;3.97;100.00;99403.19;8429177;28;20529;-75
2022/11/15 00:45:09;;;;;;;147.00;58.80;;;;;;;3.99;100.00;99385.03;8429430;28;20105;-74
2022/11/15 00:49:10;;;;;;;147.35;58.78;;;;;;;3.94;100.00;99393.03;8426900;28;20476;-74
2022/11/15 00:53:11;;;;;;;140.90;58.40;;;;;;;3.89;100.00;99391.13;8427677;28;20040;-74
2022/11/15 00:57:15;;;;;;;141.60;57.47;;;;;;;3.83;100.00;99387.63;8428812;28;20051;-75
2022/11/15 01:01:16;;;;;;;143.70;57.42;;;;;;;3.80;100.00;99374.78;8426862;28;20036;-75
2022/11/15 01:05:20;;;;;;;141.77;58.47;;;;;;;3.78;100.00;99368.91;8429343;28;20036;-73
2022/11/15 01:09:21;;;;;;;149.25;57.25;;;;;;;3.75;100.00;99374.72;8426359;28;20051;-74
2022/11/15 01:13:22;;;;;;;148.60;57.63;;;;;;;3.74;100.00;99383.84;8426521;28;20048;-75
2022/11/15 01:17:22;;;;;;;140.35;57.88;;;;;;;3.72;100.00;99380.59;8426140;28;20570;-74
2022/11/15 01:21:24;;;;;;;126.35;54.22;;;;;;;3.70;100.00;99372.03;8375075;28;20048;-75
2022/11/15 01:25:24;;;;;;;152.88;56.85;;;;;;;3.66;100.00;99370.94;8426180;28;20044;-74
2022/11/15 01:29:28;;;;;;;139.90;57.40;;;;;;;3.58;100.00;99374.09;8409143;28;20512;-74
2022/11/15 01:33:29;;;;;;;143.38;57.42;;;;;;;3.55;100.00;99369.25;8427541;28;20093;-74
2022/11/15 01:37:30;;;;;;;148.70;55.30;;;;;;;3.52;100.00;99369.78;8372609;28;20048;-74
2022/11/15 01:41:32;;;;;;;144.18;55.08;;;;;;;3.52;100.00;99364.44;8426913;28;20052;-74
2022/11/15 01:45:33;;;;;;;143.98;55.03;;;;;;;3.50;100.00;99363.88;8388246;28;20056;-74
2022/11/15 01:49:37;;;;;;;145.07;56.60;;;;;;;3.45;100.00;99363.84;8407934;28;20044;-74
2022/11/15 01:53:40;;;;;;;146.68;55.60;;;;;;;3.45;100.00;99358.50;8424546;28;20516;-74
2022/11/15 01:57:42;;;;;;;139.80;54.58;;;;;;;3.40;100.00;99350.47;8428491;28;20048;-73
2022/11/15 02:01:44;;;;;;;141.48;55.00;;;;;;;3.43;100.00;99344.63;8435140;28;20055;-74
2022/11/15 02:05:44;;;;;;;139.35;55.80;;;;;;;3.42;100.00;99348.34;8418427;28;20076;-74
2022/11/15 02:09:46;;;;;;;137.60;57.05;;;;;;;3.40;100.00;99345.13;8413766;28;20067;-74
2022/11/15 02:13:47;;;;;;;143.50;55.78;;;;;;;3.38;100.00;99328.56;8431750;28;20040;-74
2022/11/15 02:18:10;;;;;;;141.48;55.80;;;;;;;3.39;100.00;99311.47;8410859;28;20060;-75
2022/11/15 02:22:41;;;;;;;135.43;52.80;;;;;;;3.38;100.00;99309.88;8431533;28;20044;-74
2022/11/15 02:26:45;;;;;;;149.43;55.90;;;;;;;3.39;100.00;99311.47;8431151;28;20047;-74
2022/11/15 02:31:09;;;;;;;135.63;55.33;;;;;;;3.42;100.00;99310.97;8432777;28;20044;-74
2022/11/15 02:35:42;;;;;;;134.55;55.70;;;;;;;3.37;100.00;99298.41;8432488;28;20036;-74
2022/11/15 02:40:13;;;;;;;147.20;55.97;;;;;;;3.37;100.00;99293.06;8430203;28;20040;-75
2022/11/15 02:44:30;;;;;;;135.18;54.33;;;;;;;3.36;100.00;99295.97;8430605;28;20044;-74
2022/11/15 02:48:34;;;;;;;140.82;54.90;;;;;;;3.36;100.00;99290.63;8417638;28;20927;-74
2022/11/15 02:52:35;;;;;;;130.35;52.17;;;;;;;3.33;100.00;99291.16;8409708;28;20466;-75
2022/11/15 02:56:36;;;;;;;138.07;54.70;;;;;;;3.32;100.00;99294.91;8432972;28;20053;-74
2022/11/15 03:01:26;;;;;;;136.48;53.13;;;;;;;3.36;100.00;99295.97;8434363;28;20048;-74
2022/11/15 03:05:34;;;;;;;;;;;;;;;3.31;100.00;99282.59;8198453;28;20054;-74
2022/11/15 03:10:00;;;;;;;127.00;51.75;;;;;;;3.29;100.00;99274.03;8195813;28;19943;-74
2022/11/15 03:14:19;;;;;;;129.98;51.50;;;;;;;3.25;100.00;99288.97;8196735;28;20047;-74
2022/11/15 03:18:27;;;;;;;131.30;53.33;;;;;;;3.23;100.00;99275.06;8196687;28;20064;-75
2022/11/15 03:22:30;;;;;;;131.17;51.73;;;;;;;3.24;100.00;99271.34;8197734;28;20070;-75
2022/11/15 03:26:33;;;;;;;128.48;51.63;;;;;;;3.19;100.00;99273.97;8198453;28;20059;-74
2022/11/15 03:30:36;;;;;;;134.75;52.38;;;;;;;3.17;100.00;99265.44;8198139;28;20047;-74
2022/11/15 03:34:42;;;;;;;132.05;51.00;;;;;;;3.18;100.00;99267.81;8196166;28;20544;-74
2022/11/15 03:38:44;;;;;;;133.35;52.03;;;;;;;3.19;100.00;99264.09;8199608;28;20087;-74
2022/11/15 03:42:50;;;;;;;134.98;51.13;;;;;;;3.17;100.00;99260.09;8372875;28;20040;-74
2022/11/15 03:47:30;;;;;;;131.18;50.40;;;;;;;3.16;100.00;99247.81;8428962;28;20195;-74
2022/11/15 03:51:32;;;;;;;129.57;52.00;;;;;;;3.15;100.00;99240.84;8387316;28;20442;-74
2022/11/15 03:55:33;;;;;;;129.60;49.78;;;;;;;3.14;100.00;99244.59;8428386;28;20048;-75
2022/11/15 03:59:34;;;;;;;132.70;52.50;;;;;;;3.15;100.00;99246.19;8430455;28;20044;-75
2022/11/15 04:03:35;;;;;;;126.68;51.65;;;;;;;3.15;100.00;99246.19;8431797;28;20468;-74
2022/11/15 04:07:36;;;;;;;153.15;56.50;;;;;;;3.09;100.00;99253.34;8428423;28;20422;-74
2022/11/15 04:11:37;;;;;;;144.75;55.42;;;;;;;3.08;100.00;99250.94;8428527;28;20105;-73
2022/11/15 04:15:38;;;;;;;133.00;52.45;;;;;;;3.06;100.00;99239.72;8430474;28;20047;-74
2022/11/15 04:24:13;;;;;;;127.65;50.20;;;;;;;3.03;100.00;99237.56;8428172;28;20501;-74
2022/11/15 04:28:14;;;;;;;131.13;49.45;;;;;;;3.02;100.00;99235.94;8424251;28;20047;-74
2022/11/15 04:32:15;;;;;;;123.70;48.80;;;;;;;3.01;100.00;99235.16;8426889;28;20071;-74
2022/11/15 04:40:37;;;;;;;120.95;47.95;;;;;;;2.95;100.00;99237.00;8430908;28;20043;-74
2022/11/15 04:44:37;;;;;;;127.53;49.13;;;;;;;2.96;100.00;99238.56;8426994;28;20036;-74
2022/11/15 04:48:38;;;;;;;126.97;49.47;;;;;;;2.95;100.00;99226.31;8426790;28;20371;-74
2022/11/15 04:52:48;;;;;;;116.78;45.65;;;;;;;2.95;100.00;99221.00;8428778;28;20058;-74
2022/11/15 04:56:49;;;;;;;113.35;46.30;;;;;;;2.93;100.00;99228.44;8400698;28;20497;-74
2022/11/15 05:00:50;;;;;;;115.25;47.35;;;;;;;2.92;100.00;99221.47;8426553;28;20119;-74
2022/11/15 05:04:51;;;;;;;114.25;47.25;;;;;;;2.90;100.00;99223.63;8426296;28;20048;-74
2022/11/15 05:08:52;;;;;;;124.78;49.05;;;;;;;2.88;100.00;99215.06;8373296;28;20052;-73
2022/11/15 05:12:54;;;;;;;112.82;45.55;;;;;;;2.90;100.00;99212.94;8427393;28;20333;-74
2022/11/15 05:16:54;;;;;;;120.53;46.60;;;;;;;2.89;100.00;99211.34;8424288;28;20044;-74
2022/11/15 05:20:55;;;;;;;121.32;47.78;;;;;;;2.92;100.00;99200.16;8426897;28;20056;-75
2022/11/15 05:24:56;;;;;;;116.05;45.50;;;;;;;2.94;100.00;99192.69;8379709;28;20066;-74
2022/11/15 05:28:59;;;;;;;110.30;45.92;;;;;;;2.96;100.00;99190.56;8426933;28;20048;-74
2022/11/15 05:33:00;;;;;;;113.45;48.13;;;;;;;2.94;100.00;99192.69;8427142;28;20101;-74
2022/11/15 05:37:01;;;;;;;113.32;45.35;;;;;;;2.92;100.00;99197.47;8418027;28;20067;-74
2022/11/15 05:41:02;;;;;;;98.90;44.58;;;;;;;2.87;100.00;99192.09;8431522;28;20071;-74
2022/11/15 05:45:06;;;;;;;110.38;46.05;;;;;;;2.89;100.00;99194.53;8431948;28;20047;-74
2022/11/15 05:49:10;;;;;;;106.93;46.25;;;;;;;2.88;100.00;99193.72;8427210;28;20047;-74
2022/11/15 05:53:13;;;;;;;112.95;46.85;;;;;;;2.80;100.00;99196.84;8420823;28;20483;-74
2022/11/15 05:57:14;;;;;;;115.57;47.90;;;;;;;2.81;100.00;99201.13;8407532;28;20044;-75
2022/11/15 06:01:15;;;;;;;108.50;46.95;;;;;;;2.77;100.00;99194.69;8411660;28;20043;-75
2022/11/15 06:05:16;;;;;;;128.23;50.92;;;;;;;2.79;100.00;99205.94;8413535;28;20113;-73
2022/11/15 06:09:17;;;;;;;131.13;55.42;;;;;;;2.75;100.00;99199.47;8352330;28;20536;-74
2022/11/15 06:13:18;;;;;;;147.32;65.78;;;;;;;2.74;100.00;99197.91;8429293;28;20123;-74
2022/11/15 06:17:19;;;;;;;125.15;54.17;;;;;;;2.71;100.00;99198.38;8412157;28;20042;-74
2022/11/15 06:21:20;;;;;;;108.10;49.55;;;;;;;2.70;100.00;99196.78;8432469;28;20063;-74
2022/11/15 06:25:21;;;;;;;109.30;46.63;;;;;;;2.71;100.00;99193.06;8432517;28;20386;-74
2022/11/15 06:29:22;;;;;;;106.25;46.65;;;;;;;2.70;100.00;99196.78;8431186;28;20135;-74
2022/11/15 06:33:23;;;;;;;115.13;47.15;;;;;;;2.74;100.00;99197.91;8431642;28;20043;-74
2022/11/15 06:37:24;;;;;;;108.07;47.65;;;;;;;2.78;100.00;99217.66;8408690;28;20040;-74
2022/11/15 06:41:25;;;;;;;125.60;51.40;;;;;;;2.81;100.00;99214.47;8430187;28;20040;-74
2022/11/15 06:45:26;;;;;;;118.22;50.35;;;;;;;2.85;100.00;99210.25;8408519;28;20046;-74
2022/11/15 06:49:27;;;;;;;122.70;47.72;;;;;;;2.89;100.00;99216.69;8421363;28;20044;-74
2022/11/15 06:53:29;;;;;;;142.50;56.13;;;;;;;2.95;100.00;99215.66;8377036;28;20055;-74
2022/11/15 06:57:32;;;;;;;126.93;53.30;;;;;;;3.00;100.00;99217.56;8420181;28;20052;-75
2022/11/15 07:01:32;;;;;;;118.15;50.42;;;;;;;3.07;100.00;99222.66;8423980;28;20409;-75
2022/11/15 07:05:34;;;;;;;113.07;50.83;;;;;;;3.14;100.00;99215.22;8411096;28;20048;-74
2022/11/15 07:09:35;;;;;;;122.53;52.20;;;;;;;3.21;100.00;99223.81;8429317;28;20052;-75
2022/11/15 07:13:37;;;;;;;128.02;52.95;;;;;;;3.30;100.00;99222.25;8430512;28;20399;-75
2022/11/15 07:17:37;;;;;;;126.85;53.40;;;;;;;3.42;100.00;99230.88;8437898;28;20064;-77
2022/11/15 07:21:38;;;;;;;116.97;51.00;;;;;;;3.50;100.00;99227.72;8394701;28;20109;-75
2022/11/15 07:25:39;;;;;;;121.18;50.25;;;;;;;3.61;100.00;99224.03;8393277;28;20105;-76
2022/11/15 07:29:40;;;;;;;134.15;54.30;;;;;;;3.72;100.00;99225.69;8426041;28;20063;-76
2022/11/15 07:33:41;;;;;;;131.02;54.13;;;;;;;3.80;100.00;99227.88;8415219;28;20055;-76
2022/11/15 07:37:42;;;;;;;131.93;53.67;;;;;;;3.87;100.00;99226.78;8429673;28;20051;-76
2022/11/15 07:41:43;;;;;;;130.23;54.92;;;;;;;3.97;100.00;99216.13;8429805;28;20515;-76
2022/11/15 07:45:45;;;;;;;129.27;52.85;;;;;;;4.02;100.00;99224.19;8402944;28;20410;-76
2022/11/15 07:49:46;;;;;;;119.47;51.08;;;;;;;4.13;100.00;99220.47;8429412;28;20047;-76
2022/11/15 07:53:47;;;;;;;126.22;52.75;;;;;;;4.25;100.00;99215.69;8416172;28;20399;-76
2022/11/15 07:57:48;;;;;;;129.00;52.72;;;;;;;4.38;100.00;99217.06;8429639;28;20052;-76
2022/11/15 08:01:49;;;;;;;116.78;50.35;;;;;;;4.48;100.00;99212.53;8429367;28;20052;-75
2022/11/15 08:05:51;;;;;;;113.78;51.92;;;;;;;4.59;100.00;99213.34;8421586;28;20044;-76
2022/11/15 08:09:54;;;;;;;116.43;50.10;;;;;;;4.68;100.00;99212.53;8437986;28;20101;-76
2022/11/15 08:13:55;;;;;;;111.38;49.38;;;;;;;4.77;100.00;99203.94;8446039;28;20531;-75
2022/11/15 08:17:57;;;;;;;110.78;49.50;;;;;;;4.89;100.00;99207.16;8436554;28;20052;-75
2022/11/15 08:21:58;;;;;;;107.65;49.58;;;;;;;5.00;100.00;99198.88;8423478;28;20125;-76
2022/11/15 08:26:04;;;;;;;109.80;49.92;;;;;;;5.14;100.00;99201.78;8427184;28;20135;-76
2022/11/15 08:30:06;;;;;;;114.47;51.80;;;;;;;5.26;100.00;99196.94;8403993;28;20493;-75
2022/11/15 08:34:07;;;;;;;104.95;48.38;;;;;;;5.38;100.00;99200.13;8430906;28;20055;-75
2022/11/15 08:38:08;;;;;;;111.15;49.25;;;;;;;5.46;100.00;99191.53;8383762;28;20081;-75
2022/11/15 08:42:09;;;;;;;110.07;49.40;;;;;;;5.59;100.00;99184.00;8401860;28;20056;-75
2022/11/15 08:46:13;;;;;;;97.72;47.40;;;;;;;5.75;100.00;99185.53;8433871;28;20131;-75
2022/11/15 08:50:15;;;;;;;106.80;49.47;;;;;;;5.89;100.00;99189.22;8425856;28;20052;-76
2022/11/15 08:54:16;;;;;;;105.13;46.72;;;;;;;6.06;100.00;99189.69;8358791;28;20044;-75
2022/11/15 08:58:17;;;;;;;103.80;47.58;;;;;;;6.20;100.00;99184.50;8435220;28;20067;-75
2022/11/15 09:02:18;;;;;;;102.18;47.42;;;;;;;6.38;100.00;99191.09;8426291;28;20130;-75
2022/11/15 09:06:19;;;;;;;99.75;47.25;;;;;;;6.50;100.00;99184.31;8434718;28;20127;-76
2022/11/15 09:10:20;;;;;;;108.97;47.20;;;;;;;6.63;100.00;99177.47;8434155;28;20040;-76
2022/11/15 09:14:21;;;;;;;101.00;47.17;;;;;;;6.79;100.00;99176.28;8435597;28;20085;-75
2022/11/15 09:18:22;;;;;;;98.45;44.95;;;;;;;6.93;100.00;99181.78;8434826;28;20040;-76
2022/11/15 09:22:23;;;;;;;87.72;40.65;;;;;;;7.10;100.00;99177.59;8435152;28;20359;-76
2022/11/15 09:26:24;;;;;;;81.10;38.40;;;;;;;7.29;100.00;99168.81;8434809;28;20044;-76
2022/11/15 09:30:25;;;;;;;77.72;36.72;;;;;;;7.47;100.00;99166.19;8435809;28;20040;-76
2022/11/15 09:34:26;;;;;;;72.82;35.70;;;;;;;7.64;100.00;99176.47;8435174;28;20076;-76
2022/11/15 09:38:27;;;;;;;78.30;37.70;;;;;;;7.81;100.00;99173.28;8434576;28;20044;-76
2022/11/15 09:42:34;;;;;;;67.43;34.47;;;;;;;8.02;100.00;99166.56;8428105;28;20041;-76
2022/11/15 09:46:55;;;;;;;66.78;32.58;;;;;;;8.26;100.00;99166.47;8430077;28;20042;-76
2022/11/15 09:51:01;;;;;;;59.92;31.38;;;;;;;8.43;99.72;99162.22;8435594;28;20072;-75
2022/11/15 09:55:03;;;;;;;77.10;31.75;;;;;;;8.62;98.54;99159.47;8417690;28;20046;-75
2022/11/15 09:59:32;;;;;;;58.60;29.23;;;;;;;8.81;97.25;99152.16;8416545;28;20048;-75
2022/11/15 10:03:41;;;;;;;53.17;27.95;;;;;;;8.97;96.74;99149.19;8408769;28;20062;-76
2022/11/15 10:08:34;;;;;;;57.42;28.38;;;;;;;9.11;95.47;99139.22;8434570;28;20059;-76
2022/11/15 10:12:35;;;;;;;52.35;28.67;;;;;;;9.26;94.67;99130.84;8330154;28;20068;-76
2022/11/15 10:16:57;;;;;;;51.67;27.05;;;;;;;9.43;94.08;99122.97;8331539;28;20097;-75
2022/11/15 10:21:02;;;;;;;51.90;26.60;;;;;;;9.57;92.79;99123.75;8334355;28;20058;-76
2022/11/15 10:25:02;;;;;;;50.85;25.67;;;;;;;9.74;93.00;99118.53;8353034;28;20068;-76
2022/11/15 10:29:04;;;;;;;46.05;26.15;;;;;;;9.85;92.65;99116.44;8335952;28;20054;-76
2022/11/15 10:33:22;;;;;;;45.53;24.90;;;;;;;9.97;90.48;99113.22;8336790;28;20113;-75
2022/11/15 10:37:31;;;;;;;41.67;24.05;;;;;;;10.03;89.03;99101.19;8336165;28;20064;-76
2022/11/15 10:41:35;;;;;;;42.35;24.15;;;;;;;10.08;88.69;99093.00;8343237;28;20061;-76
2022/11/15 10:45:38;;;;;;;49.03;24.98;;;;;;;10.18;88.77;99081.97;8350205;28;20127;-76
2022/11/15 10:49:53;;;;;;;50.47;24.05;;;;;;;10.31;88.53;99081.09;8427055;28;20105;-75
2022/11/15 10:53:57;;;;;;;43.10;23.73;;;;;;;10.42;88.28;99082.47;8439643;28;20052;-76
2022/11/15 10:58:19;;;;;;;45.35;25.17;;;;;;;10.46;86.56;99067.25;8421393;28;20054;-76
2022/11/15 11:02:34;;;;;;;47.78;23.52;;;;;;;10.52;85.81;99066.00;8440003;28;20070;-76
2022/11/15 11:06:49;;;;;;;47.30;24.48;;;;;;;10.65;86.24;99068.94;8439219;28;20143;-77
2022/11/15 11:10:55;;;;;;;43.45;22.67;;;;;;;10.71;86.13;99067.69;8439477;28;20056;-76
2022/11/15 11:14:56;;;;;;;46.10;24.05;;;;;;;10.83;85.89;99070.63;8425847;28;20506;-76
2022/11/15 11:19:15;;;;;;;44.67;24.95;;;;;;;10.96;85.47;99064.31;8420677;28;20071;-76
2022/11/15 11:23:36;;;;;;;40.33;21.50;;;;;;;11.00;84.37;99065.28;8427881;28;20515;-77
2022/11/15 11:27:55;;;;;;;39.30;20.95;;;;;;;11.12;84.19;99057.38;8420054;28;20059;-76
2022/11/15 11:32:04;;;;;;;47.28;25.60;;;;;;;11.27;85.36;99054.25;8333519;28;20050;-76
2022/11/15 11:36:20;;;;;;;45.05;26.42;;;;;;;11.34;85.82;99049.19;8313174;28;20073;-76
2022/11/15 11:40:47;;;;;;;48.47;26.50;;;;;;;11.37;86.00;99047.75;8333463;28;20058;-75
2022/11/15 11:45:40;;;;;;;45.97;26.10;;;;;;;11.39;86.45;99043.63;8204876;28;20047;-76
2022/11/15 11:49:41;;;;;;;54.72;29.27;;;;;;;11.42;86.08;99034.88;8141254;29;20088;-76
2022/11/15 11:53:50;;;;;;;56.40;29.98;;;;;;;11.41;85.90;99038.72;8140513;29;20052;-77
2022/11/15 11:58:18;;;;;;;77.70;39.15;;;;;;;11.39;86.23;99040.91;8141031;29;20051;-75
2022/11/15 12:02:31;;;;;;;181.02;76.78;;;;;;;11.34;87.28;99038.38;8134518;29;20063;-76
2022/11/15 12:06:49;;;;;;;64.43;33.00;;;;;;;11.35;87.71;99039.97;8170889;29;20059;-76
2022/11/15 12:10:57;;;;;;;52.60;30.60;;;;;;;11.37;87.38;99026.91;8156321;29;20056;-75
2022/11/15 12:15:25;;;;;;;;;;;;;;;11.39;86.94;99015.78;8156030;29;20201;-77
2022/11/15 12:19:26;;;;;;;67.80;32.08;;;;;;;11.53;86.31;99019.13;8116300;29;19934;-75
2022/11/15 12:23:42;;;;;;;66.90;34.63;;;;;;;11.86;85.86;99000.56;8170651;29;20051;-77
2022/11/15 12:27:46;;;;;;;61.00;32.40;;;;;;;12.25;85.55;98997.66;8265796;28;20483;-75
2022/11/15 12:31:51;;;;;;;171.48;69.00;;;;;;;12.67;84.50;98995.13;8273237;28;20136;-75
2022/11/15 12:36:01;;;;;;;93.25;46.40;;;;;;;13.25;83.44;98990.88;8250020;28;20073;-75
2022/11/15 12:40:25;;;;;;;93.47;45.42;;;;;;;13.26;81.63;98992.47;8275457;28;20046;-75
2022/11/15 12:44:35;;;;;;;86.78;41.30;;;;;;;13.31;81.29;98995.00;8292855;28;20417;-75
2022/11/15 12:48:37;;;;;;;55.30;31.92;;;;;;;13.39;80.79;98991.41;8265527;28;20407;-75
2022/11/15 12:53:17;;;;;;;54.40;30.00;;;;;;;13.07;79.92;98982.81;8306777;28;20207;-75
2022/11/15 12:57:28;;;;;;;;;;;;;;;13.09;80.24;98975.16;8385176;28;20052;-75
2022/11/15 13:01:35;;;;;;;238.98;79.63;;;;;;;13.57;78.66;98976.63;8375058;28;19920;-73
2022/11/15 13:05:36;;;;;;;160.68;60.13;;;;;;;13.96;78.06;98962.53;8394134;28;20071;-74
2022/11/15 13:09:37;;;;;;;82.53;39.50;;;;;;;14.13;77.33;98966.22;8403655;28;20068;-76
2022/11/15 13:13:43;;;;;;;78.22;35.47;;;;;;;14.29;75.95;98959.00;8401960;28;20098;-75
2022/11/15 13:17:47;;;;;;;84.40;40.50;;;;;;;13.82;76.88;98945.75;8397318;28;20067;-74
2022/11/15 13:26:20;;;;;;;174.70;66.68;;;;;;;12.49;78.28;98958.38;8393248;28;20041;-74
2022/11/15 13:30:27;;;;;;;125.97;52.88;;;;;;;12.13;79.29;98940.66;8396539;28;20048;-76
2022/11/15 13:34:33;;;;;;;185.82;75.35;;;;;;;11.97;79.77;98946.91;8399215;28;20418;-74
2022/11/15 13:38:36;;;;;;;92.07;43.38;;;;;;;11.88;80.29;98955.06;8424339;28;20051;-75
2022/11/15 13:42:37;;;;;;;64.03;33.78;;;;;;;11.74;80.78;98954.41;8446376;28;20402;-75
2022/11/15 13:46:38;;;;;;;62.00;33.80;;;;;;;11.43;82.06;98949.94;8426748;28;20056;-75
2022/11/15 13:50:39;;;;;;;87.70;41.70;;;;;;;11.39;82.11;98943.59;8419354;28;20128;-75
2022/11/15 13:54:44;;;;;;;137.07;54.53;;;;;;;11.28;82.90;98939.59;8431251;28;20521;-74
2022/11/15 13:58:45;;;;;;;173.65;65.07;;;;;;;11.24;83.16;98935.94;8432927;28;20569;-76
2022/11/15 14:02:46;;;;;;;148.13;59.40;;;;;;;11.04;83.63;98931.16;8419823;28;20478;-76
2022/11/15 14:06:50;;;;;;;227.25;88.70;;;;;;;10.96;83.79;98929.22;8414965;28;20075;-75
2022/11/15 14:11:13;;;;;;;225.93;86.72;;;;;;;10.71;84.84;98921.84;8433067;28;20051;-75
2022/11/15 14:15:34;;;;;;;229.05;84.10;;;;;;;10.68;84.89;98927.91;8424891;28;20048;-77
2022/11/15 14:19:36;;;;;;;138.95;57.83;;;;;;;10.55;85.33;98924.19;8380764;28;20048;-76
2022/11/15 14:23:37;;;;;;;90.65;42.20;;;;;;;10.42;85.73;98920.47;8375721;28;20047;-75
2022/11/15 14:27:40;;;;;;;79.07;39.17;;;;;;;10.27;86.16;98923.59;8415092;28;20048;-75
2022/11/15 14:31:40;;;;;;;71.32;38.67;;;;;;;10.12;86.64;98921.28;8437098;28;20058;-75
2022/11/15 14:35:42;;;;;;;89.82;42.25;;;;;;;9.96;87.31;98911.97;8424703;28;20448;-76
2022/11/15 14:39:43;;;;;;;85.88;42.67;;;;;;;9.81;87.86;98915.88;8431603;28;20047;-75
2022/11/15 14:43:44;;;;;;;75.78;37.78;;;;;;;9.67;88.20;98905.16;8435074;28;20044;-76
2022/11/15 14:47:45;;;;;;;54.17;29.15;;;;;;;9.53;88.38;98901.72;8431742;28;20078;-75
2022/11/15 14:51:46;;;;;;;61.50;32.75;;;;;;;9.31;88.95;98901.69;8440108;28;20047;-75
2022/11/15 14:55:47;;;;;;;63.13;35.47;;;;;;;9.07;89.76;98895.78;8431343;28;20059;-76
2022/11/15 14:59:48;;;;;;;69.45;33.92;;;;;;;8.84;90.07;98898.44;8431483;28;20051;-75
2022/11/15 15:03:51;;;;;;;70.30;36.53;;;;;;;8.63;90.59;98897.25;8431551;28;20090;-74
2022/11/15 15:07:53;;;;;;;69.53;35.28;;;;;;;8.44;91.04;98888.50;8422933;28;20120;-75
2022/11/15 15:11:54;;;;;;;63.40;33.17;;;;;;;8.24;91.36;98888.88;8402624;28;20071;-75
2022/11/15 15:15:55;;;;;;;65.63;34.13;;;;;;;8.06;91.54;98888.66;8428775;28;20391;-76
2022/11/15 15:19:56;;;;;;;78.40;38.67;;;;;;;7.90;92.01;98884.66;8387650;28;20044;-75
2022/11/15 15:23:57;;;;;;;78.25;37.67;;;;;;;7.75;92.35;98876.84;8429827;28;20036;-75
2022/11/15 15:27:59;;;;;;;78.55;38.70;;;;;;;7.64;92.41;98875.44;8433857;28;20048;-75
2022/11/15 15:32:00;;;;;;;75.60;38.00;;;;;;;7.52;92.77;98880.47;8429100;28;20044;-75
2022/11/15 15:36:01;;;;;;;76.32;37.03;;;;;;;7.38;92.95;98876.94;8433279;28;20052;-75
2022/11/15 15:40:02;;;;;;;63.22;36.00;;;;;;;7.21;93.36;98872.91;8438999;28;20055;-76
2022/11/15 15:44:03;;;;;;;63.35;31.75;;;;;;;7.11;92.95;98862.31;8432019;28;20387;-75
2022/11/15 15:48:05;;;;;;;64.40;35.25;;;;;;;6.99;93.25;98853.91;8435875;28;20074;-75
2022/11/15 15:52:06;;;;;;;73.30;39.78;;;;;;;6.89;93.30;98854.03;8408715;28;20044;-75
2022/11/15 15:56:08;;;;;;;78.18;41.45;;;;;;;6.83;93.63;98863.25;8383935;28;20048;-75
2022/11/15 16:00:10;;;;;;;86.07;45.10;;;;;;;6.74;93.66;98865.00;8420025;28;20048;-75
2022/11/15 16:04:11;;;;;;;87.38;46.70;;;;;;;6.62;94.11;98864.63;8435589;28;20093;-76
2022/11/15 16:08:27;;;;;;;81.53;44.13;;;;;;;6.50;94.11;98856.22;8428420;28;20391;-75
2022/11/15 16:12:29;;;;;;;82.97;42.22;;;;;;;6.39;94.19;98860.91;8391075;28;20166;-75
2022/11/15 16:16:30;;;;;;;89.78;43.95;;;;;;;6.35;94.48;98839.19;8436458;28;20051;-75
2022/11/15 16:20:32;;;;;;;82.47;42.17;;;;;;;6.30;94.48;98852.66;8360302;28;20055;-75
2022/11/15 16:24:33;;;;;;;92.47;47.63;;;;;;;6.23;94.46;98852.25;8433736;28;20084;-75
2022/11/15 16:28:34;;;;;;;89.55;46.63;;;;;;;6.16;94.61;98862.50;8434579;28;20040;-75
2022/11/15 16:32:35;;;;;;;92.60;44.28;;;;;;;6.09;95.04;98861.22;8379612;28;20069;-75
2022/11/15 16:36:37;;;;;;;94.60;49.25;;;;;;;6.01;94.85;98869.91;8426452;28;20127;-75
2022/11/15 16:40:38;;;;;;;93.07;45.28;;;;;;;5.94;94.92;98859.53;8357648;28;20337;-75
2022/11/15 16:44:39;;;;;;;94.85;43.80;;;;;;;5.88;95.01;98855.28;8355226;28;20509;-74
2022/11/15 16:48:40;;;;;;;95.80;42.60;;;;;;;5.84;94.95;98854.22;8367815;28;20057;-75
2022/11/15 16:52:41;;;;;;;96.50;43.50;;;;;;;5.83;94.93;98852.63;8355415;28;20048;-75
2022/11/15 16:56:42;;;;;;;119.53;47.30;;;;;;;5.82;94.96;98845.66;8358379;28;20127;-75
2022/11/15 17:00:43;;;;;;;112.70;46.47;;;;;;;5.79;94.93;98846.25;8359067;28;20119;-75
2022/11/15 17:04:45;;;;;;;89.93;41.92;;;;;;;5.75;95.01;98845.22;8355959;28;20129;-75
2022/11/15 17:08:47;;;;;;;84.55;40.75;;;;;;;5.73;94.86;98831.31;8339844;28;20052;-76
2022/11/15 17:12:48;;;;;;;67.43;34.90;;;;;;;5.68;94.99;98828.69;8428017;28;20059;-75
2022/11/15 17:16:50;;;;;;;64.82;33.70;;;;;;;5.68;94.98;98834.03;8389447;28;20052;-75
2022/11/15 17:20:50;;;;;;;61.63;32.55;;;;;;;5.68;95.06;98834.03;8375813;28;20059;-75
2022/11/15 17:24:52;;;;;;;60.50;31.83;;;;;;;5.62;95.30;98829.81;8389383;28;20040;-75
2022/11/15 17:28:56;;;;;;;63.17;31.08;;;;;;;5.57;95.23;98821.81;8398126;28;20509;-75
2022/11/15 17:32:57;;;;;;;60.58;30.35;;;;;;;5.52;95.42;98820.78;8407398;28;20044;-75
2022/11/15 17:36:58;;;;;;;59.45;30.58;;;;;;;5.53;95.75;98811.69;8395592;28;20525;-76
2022/11/15 17:41:09;;;;;;;55.83;30.50;;;;;;;5.60;95.99;98810.56;8395984;28;20064;-75
2022/11/15 17:45:10;;;;;;;54.58;29.55;;;;;;;5.59;96.20;98808.94;8396792;28;20422;-75
2022/11/15 17:49:11;;;;;;;50.60;28.80;;;;;;;5.53;95.96;98806.31;8433213;28;20081;-75
2022/11/15 17:53:12;;;;;;;52.50;28.63;;;;;;;5.55;95.84;98802.56;8436743;28;20054;-74
2022/11/15 17:57:13;;;;;;;71.00;34.88;;;;;;;5.58;96.06;98788.59;8432591;28;20413;-75
2022/11/15 18:01:14;;;;;;;64.07;32.97;;;;;;;5.64;96.13;98784.78;8436197;28;20127;-75
2022/11/15 18:05:15;;;;;;;58.03;29.77;;;;;;;5.67;96.21;98784.22;8433937;28;20530;-75
2022/11/15 18:09:16;;;;;;;70.35;38.20;;;;;;;5.70;96.46;98783.66;8432494;28;20181;-75
2022/11/15 18:13:17;;;;;;;61.85;32.72;;;;;;;5.75;96.52;98780.91;8434147;28;20039;-75
2022/11/15 18:17:18;;;;;;;62.83;32.45;;;;;;;5.74;96.91;98779.31;8435766;28;20048;-75
2022/11/15 18:21:27;;;;;;;65.50;33.33;;;;;;;5.66;97.00;98771.91;8432260;28;20119;-75
2022/11/15 18:25:28;;;;;;;;;;;;;;;5.62;97.02;98765.50;8432708;28;20044;-75
2022/11/15 18:29:29;;;;;;;64.60;31.60;;;;;;;5.62;97.27;98760.16;8432728;28;19920;-75
2022/11/15 18:33:33;;;;;;;84.22;36.67;;;;;;;5.61;97.21;98758.56;8421591;28;20043;-76
2022/11/15 18:37:35;;;;;;;83.90;36.67;;;;;;;5.60;97.19;98762.34;8431226;28;20052;-75
2022/11/15 18:41:36;;;;;;;97.60;40.20;;;;;;;5.57;97.36;98769.03;8431009;28;20048;-75
2022/11/15 18:45:37;;;;;;;130.80;51.38;;;;;;;5.55;97.65;98749.00;8419863;28;20098;-75
2022/11/15 18:49:37;;;;;;;103.97;43.20;;;;;;;5.52;97.49;98761.88;8385273;28;20072;-75
2022/11/15 18:53:40;;;;;;;79.03;36.42;;;;;;;5.55;97.50;98759.72;8423596;28;20059;-76
2022/11/15 18:57:40;;;;;;;74.70;36.35;;;;;;;5.59;97.56;98771.44;8431540;28;20150;-75